Weather observations for the past three days for
Burbank - Bob Hope Airport
Metric (Imperial)
Date Time (pdt) Wind (kph) Vis. (km) Weather Sky Cond. Temperature (ºC) Relative Humidity Wind Chill (°C) Heat Index (°C) Pressure Precipitation (cm)
Air Dwpt 6 hour altimeter (cm) sea level (mb) 1 hr 3 hr 6 hr
Max. Min.
10 12:53 SW 15 8.05 Fair with Haze CLR 26.7 12.8 42% 27 76 1012.0
10 11:53 S 11 8.05 Fair with Haze CLR 25 13.9 50% 26 76.02 1012.4
10 10:53 S 7 8.05 Fair with Haze CLR 21.7 13.3 21.7 13.9 59% 76.02 1012.5
10 09:53 E 7 8.05 Fair with Haze CLR 18.9 13.3 70% 76.05 1012.7
10 08:53 S 6 8.05 Partly Cloudy with Haze SCT007 16.7 12.8 78% 76.02 1012.4
10 07:53 NE 6 6.44 Fog/Mist BKN005 13.9 12.2 90% 76.02 1012.7
10 06:53 NW 6 4.83 Fog/Mist OVC005 14.4 12.8 90% 76 1012.1
10 05:53 NE 7 4.83 Fog/Mist OVC006 14.4 12.8 90% 75.97 1011.8
10 04:53 S 7 4.83 Fog/Mist OVC004 14.4 13.3 16.7 14.4 93% 75.97 1011.8
10 03:53 Vrbl 6 3.22 Fog/Mist OVC005 15 13.3 90% 75.97 1011.6
10 02:53 S 9 3.22 Fog/Mist OVC004 15 13.3 90% 75.97 1011.8
10 01:53 SE 11 3.22 Fog/Mist OVC006 15 13.3 90% 75.97 1011.7
10 00:53 SE 9 8.05 Fog/Mist CLR 15.6 13.3 86% 76 1012.0
09 23:53 SE 11 14.48 Fair CLR 16.7 13.3 80% 76 1012.0
09 22:53 Vrbl 7 16.09 Fair CLR 16.7 13.3 26.7 16.7 80% 76 1012.1
09 21:53 SE 11 16.09 Fair CLR 17.8 13.9 78% 76 1012.1
09 20:53 SE 11 16.09 Fair CLR 18.3 13.3 73% 75.95 1011.6
09 19:53 SE 19 16.09 Fair CLR 20 13.9 68% 75.9 1010.6
09 18:53 SE 17 16.09 Fair CLR 21.7 12.8 57% 75.84 1010.2
09 17:53 S 19 16.09 Fair CLR 24.4 13.3 50% 26 75.84 1009.9
09 16:53 S 19 16.09 Fair CLR 26.7 13.3 26.7 21.1 44% 27 75.84 1009.8
09 15:53 S 15 16.09 Fair CLR 26.1 13.3 45% 26 75.84 1010.0
09 14:53 S 17 16.09 Fair CLR 26.1 13.9 47% 27 75.9 1010.6
09 13:53 S 11 16.09 Fair CLR 26.1 13.9 47% 27 75.95 1011.2
09 12:53 S 17 8.05 Fair with Haze CLR 25 14.4 52% 26 75.97 1011.6
09 11:53 Vrbl 7 6.44 Fair with Haze CLR 23.3 14.4 57% 76.02 1012.2
09 10:53 Calm 6.44 Fair with Haze CLR 21.1 13.9 21.1 14.4 64% 76.05 1012.9
09 09:53 Calm 6.44 A Few Clouds with Haze FEW012 18.3 13.9 76% 76.05 1012.8
09 08:53 Calm 2.41 Fog/Mist OVC008 16.1 13.9 87% 76.07 1013.2
09 07:53 E 7 2.41 Fog/Mist OVC006 15 13.3 90% 76.07 1013.2
09 06:53 NE 7 3.22 Fog/Mist OVC006 15 13.3 90% 76.05 1013.1
09 05:53 E 6 4.83 Fog/Mist OVC005 15 13.3 90% 76.02 1012.5
09 04:53 Calm 6.44 Fog/Mist OVC006 15 13.3 16.1 15 90% 76.02 1012.3
09 03:53 E 7 8.05 Fog/Mist OVC006 15 13.3 90% 76.02 1012.4
09 02:53 E 7 8.05 Fog/Mist OVC006 15 13.3 90% 76.05 1012.6
09 01:53 Calm 11.27 Overcast OVC007 15 13.3 90% 76.05 1012.8
09 00:53 S 7 14.48 Fair CLR 15 12.8 87% 76.07 1013.2
08 23:53 SE 9 16.09 Fair CLR 15.6 13.3 86% 76.1 1013.5
08 22:53 S 7 16.09 Fair CLR 16.1 13.3 23.9 16.1 84% 76.1 1013.5
08 21:53 E 9 16.09 Fair CLR 16.7 13.3 80% 76.1 1013.5
08 20:53 S 9 16.09 Fair CLR 17.2 13.3 78% 76.07 1013.2
08 19:53 S 11 14.48 Fair CLR 17.8 13.3 75% 76.02 1012.5
08 18:53 S 15 16.09 Fair CLR 19.4 13.9 71% 76 1012.1
08 17:53 S 20 16.09 Fair CLR 21.7 13.9 61% 75.97 1011.6
08 16:53 S 20 16.09 Fair CLR 23.9 13.9 25.6 18.3 54% 25 75.97 1011.6
08 15:53 S 17 16.09 Fair CLR 24.4 13.9 52% 26 76 1012.1
08 14:53 S 11 16.09 Fair CLR 24.4 13.9 52% 26 76.07 1012.9
08 13:53 SE 11 16.09 Fair CLR 24.4 13.9 52% 26 76.1 1013.4
08 12:53 Vrbl 7 16.09 Fair CLR 22.8 13.3 55% 76.15 1014.1
08 11:53 SW 9 12.87 Fair CLR 20.6 13.3 63% 76.2 1014.9
08 10:53 Vrbl 7 14.48 A Few Clouds FEW016 18.9 13.3 18.9 14.4 70% 76.25 1015.5
08 09:53 Vrbl 7 6.44 Mostly Cloudy with Haze BKN010 16.7 12.8 78% 76.25 1015.7
08 08:53 Vrbl 6 6.44 Overcast with Haze OVC009 15.6 12.8 84% 76.25 1015.6
08 07:53 Calm 6.44 Fog/Mist OVC008 15 12.8 87% 76.25 1015.8
08 06:53 Calm 6.44 Fog/Mist OVC009 15 12.8 87% 76.25 1015.5
08 05:53 E 6 12.87 Overcast OVC009 15 12.8 87% 76.23 1015.1
08 04:53 E 7 11.27 Overcast OVC008 15 12.8 15.6 14.4 87% 76.2 1014.7
08 03:53 S 6 9.66 Fog/Mist OVC008 14.4 12.8 90% 76.17 1014.5
08 02:53 S 7 16.09 Fair CLR 14.4 12.8 90% 76.17 1014.6
08 01:53 Calm 16.09 Fair CLR 15 12.8 87% 76.2 1014.8
08 00:53 Calm 16.09 Fair CLR 15 12.2 83% 76.23 1015.3
07 23:53 Calm 16.09 Fair CLR 15 12.8 87% 76.23 1015.2
07 22:53 S 9 16.09 Fair CLR 15.6 12.8 24.4 15.6 84% 76.2 1014.9
07 21:53 SE 17 16.09 Fair CLR 17.2 12.2 73% 76.17 1014.6
07 20:53 SE 17 16.09 Fair CLR 17.8 12.2 70% 76.12 1013.8
07 19:53 SE 20 16.09 Fair CLR 18.3 12.2 68% 76.07 1013.1
07 18:53 S 15 16.09 Fair CLR 20.6 12.2 59% 76.02 1012.4
07 17:53 S 19 16.09 Fair CLR 22.8 12.8 53% 76.02 1012.4
07 16:53 S 19 16.09 Fair CLR 23.9 12.8 26.1 22.2 50% 25 76.02 1012.3
07 15:53 S 20 16.09 Fair CLR 25.6 12.2 43% 26 76.02 1012.4
07 14:53 S 15 16.09 Fair CLR 25 12.8 47% 26 76.07 1012.9
07 13:53 SW 11 16.09 Fair CLR 25.6 12.8 45% 26 76.1 1013.4
Date Time (pdt) Wind (kph) Vis. (km) Weather Sky Cond. Air Dwpt Max. Min. Relative Humidity Wind Chill (°C) Heat Index (°C) altimeter (cm) sea level (mb) 1 hr 3 hr 6 hr
6 hour
Temperature (ºC) Pressure Precipitation (cm)